»·PEaware :: N9401L KAUS-KJFK

N9401L :: KAUS-KJFK

FLIGHT INFORMATION

Flight Status: Arrived
Operator: Privately registered:
United States
More flights under this callsign
Pilot: Juan D. (11620)
Aircraft: BOEING 737-800
(B738)
More flights by this aircraft type
Origin: KAUS Austin Bergstrom Intl
United States
Destination: KJFK Kennedy Intl
United States
More flights between these airports :: More routes between these airports
Route:
File this flight plan on PilotEdge
Remarks:
Altitude:
(Current/Filed)
39,000ft
Speed:
(Current/Filed)
500kts
Departed: 19-Jan-19 07:32 AM
Arrived: 19-Jan-19 10:11 AM
Distance/Time
Traveled:
1320nm/2:39
Distance/Time
To Go:
Arrived

Flight Plot

Page will automatically refresh every two minutes.

Flight plan parsing failed; only flown route is shown


Map Options




Map Legend


Flown Route
Filed Route
Departure Airport
Arrival Airport
Navaid (VOR, NDB)
Fix

Horizontal Profiles

Position Reports

Time Latitude Longitude Heading Altitude Ground
Speed
19-Jan-19 07:30 30.203430 -97.657881 178 549ft 0kts
19-Jan-19 07:31 30.184459 -97.657336 178 789ft 210kts
19-Jan-19 07:32 30.125474 -97.655702 178 3379ft 211kts
19-Jan-19 07:33 30.066536 -97.653953 173 3496ft 210kts
19-Jan-19 07:34 30.044855 -97.601686 63 5250ft 252kts
19-Jan-19 07:35 30.097069 -97.538625 47 8294ft 281kts
19-Jan-19 07:36 30.148651 -97.468580 51 11306ft 294kts
19-Jan-19 07:37 30.186355 -97.413066 50 13413ft 352kts
19-Jan-19 07:38 30.243720 -97.309539 50 16475ft 411kts
19-Jan-19 07:39 30.308194 -97.195507 50 19471ft 439kts
19-Jan-19 07:40 30.379300 -97.073909 49 22456ft 475kts
19-Jan-19 07:41 30.458333 -96.947253 50 25359ft 501kts
19-Jan-19 07:42 30.543806 -96.814454 49 27908ft 526kts
19-Jan-19 07:43 30.633496 -96.675412 49 29947ft 556kts
19-Jan-19 07:44 30.728667 -96.527761 50 31537ft 584kts
19-Jan-19 07:45 30.825896 -96.373840 50 33214ft 602kts
19-Jan-19 07:46 30.926095 -96.216817 50 34999ft 614kts
19-Jan-19 07:47 31.028787 -96.059470 50 37253ft 613kts
19-Jan-19 07:48 31.130876 -95.906775 50 39074ft 616kts
19-Jan-19 07:49 31.237587 -95.747708 49 39025ft 625kts
19-Jan-19 07:50 31.327120 -95.614007 49 39024ft 617kts
19-Jan-19 07:51 31.433482 -95.455886 49 39031ft 618kts
19-Jan-19 07:52 31.538255 -95.300068 50 39014ft 618kts
19-Jan-19 07:53 31.643500 -95.143508 50 38964ft 618kts
19-Jan-19 07:54 31.748714 -94.986584 49 38961ft 622kts
19-Jan-19 07:55 31.855333 -94.829185 49 38915ft 634kts
19-Jan-19 07:56 31.965964 -94.668669 49 38885ft 636kts
19-Jan-19 07:57 32.075888 -94.508799 49 38886ft 636kts
19-Jan-19 07:58 32.183648 -94.352406 49 38901ft 636kts
19-Jan-19 07:59 32.289810 -94.199383 49 38845ft 636kts
19-Jan-19 08:00 32.396997 -94.044617 49 38825ft 636kts
19-Jan-19 08:01 32.505325 -93.888601 49 38820ft 636kts
19-Jan-19 08:02 32.616772 -93.728941 48 38814ft 636kts
19-Jan-19 08:03 32.728659 -93.569131 48 38816ft 635kts
19-Jan-19 08:04 32.840075 -93.409835 48 38820ft 636kts
19-Jan-19 08:05 32.951553 -93.251250 48 38773ft 636kts
19-Jan-19 08:06 33.065137 -93.093616 49 38724ft 624kts
19-Jan-19 08:07 33.180255 -92.941824 48 38709ft 622kts
19-Jan-19 08:08 33.295249 -92.790477 48 38759ft 626kts
19-Jan-19 08:09 33.411672 -92.638619 47 38739ft 625kts
19-Jan-19 08:10 33.528179 -92.486369 47 38732ft 625kts
19-Jan-19 08:11 33.641463 -92.338871 47 38730ft 625kts
19-Jan-19 08:12 33.760182 -92.184540 48 38711ft 626kts
19-Jan-19 08:13 33.877911 -92.031534 47 38700ft 625kts
19-Jan-19 08:14 33.996200 -91.878717 47 38704ft 625kts
19-Jan-19 08:15 34.113688 -91.727117 47 38689ft 625kts
19-Jan-19 08:16 34.232449 -91.573977 47 38687ft 626kts
19-Jan-19 08:17 34.351525 -91.420479 47 38674ft 624kts
19-Jan-19 08:18 34.470146 -91.268562 47 38665ft 625kts
19-Jan-19 08:19 34.589545 -91.116911 47 38672ft 626kts
19-Jan-19 08:20 34.709795 -90.963632 46 38689ft 629kts
19-Jan-19 08:21 34.830433 -90.810805 46 38702ft 630kts
19-Jan-19 08:22 34.951936 -90.658016 46 38696ft 628kts
19-Jan-19 08:23 35.060745 -90.495087 55 38692ft 623kts
19-Jan-19 08:24 35.157254 -90.328526 61 38659ft 618kts
19-Jan-19 08:25 35.232545 -90.161379 67 38666ft 614kts
19-Jan-19 08:26 35.285521 -90.040482 67 38676ft 613kts
19-Jan-19 08:27 35.363600 -89.862826 67 38686ft 614kts
19-Jan-19 08:28 35.443507 -89.681668 66 38692ft 614kts
19-Jan-19 08:29 35.522414 -89.503046 66 38686ft 615kts
19-Jan-19 08:30 35.598875 -89.331077 66 38685ft 613kts
19-Jan-19 08:31 35.670194 -89.171748 66 38688ft 614kts
19-Jan-19 08:32 35.742762 -89.010427 66 38709ft 614kts
19-Jan-19 08:33 35.819488 -88.838110 66 38717ft 619kts
19-Jan-19 08:34 35.896100 -88.663251 66 38713ft 618kts
19-Jan-19 08:35 35.976934 -88.479659 65 38712ft 617kts
19-Jan-19 08:36 36.053774 -88.305049 66 38707ft 617kts
19-Jan-19 08:37 36.122645 -88.134269 71 38694ft 612kts
19-Jan-19 08:38 36.181181 -87.960019 73 38698ft 613kts
19-Jan-19 08:39 36.242243 -87.773190 73 38723ft 611kts
19-Jan-19 08:40 36.303699 -87.585291 73 38724ft 613kts
19-Jan-19 08:41 36.360732 -87.404790 73 38734ft 610kts
19-Jan-19 08:42 36.413899 -87.238083 74 38736ft 610kts
19-Jan-19 08:44 36.469266 -87.064030 73 38741ft 612kts
19-Jan-19 08:45 36.522731 -86.882885 73 38759ft 607kts
19-Jan-19 08:46 36.576157 -86.689116 73 38775ft 607kts
19-Jan-19 08:47 36.627777 -86.503613 73 38776ft 606kts
19-Jan-19 08:48 36.677487 -86.324076 74 38766ft 607kts
19-Jan-19 08:49 36.726656 -86.149693 73 38763ft 606kts
19-Jan-19 08:50 36.777338 -85.970576 73 38752ft 607kts
19-Jan-19 08:51 36.830847 -85.782582 72 38758ft 606kts
19-Jan-19 08:52 36.885593 -85.592053 72 38772ft 606kts
19-Jan-19 08:53 36.942211 -85.396099 72 38828ft 607kts
19-Jan-19 08:54 36.995687 -85.211140 72 38857ft 611kts
19-Jan-19 08:55 37.050809 -85.018940 72 38870ft 612kts
19-Jan-19 08:56 37.104830 -84.823351 72 38866ft 612kts
19-Jan-19 08:57 37.159120 -84.631141 72 38854ft 612kts
19-Jan-19 08:58 37.216124 -84.431286 71 38861ft 612kts
19-Jan-19 08:59 37.272218 -84.236538 72 38886ft 612kts
19-Jan-19 09:00 37.329961 -84.037113 71 38895ft 612kts
19-Jan-19 09:01 37.395647 -83.812045 71 38916ft 612kts
19-Jan-19 09:02 37.461381 -83.588541 71 38941ft 612kts
19-Jan-19 09:02 37.516909 -83.400322 71 38944ft 612kts
19-Jan-19 09:04 37.591028 -83.152285 71 38935ft 612kts
19-Jan-19 09:05 37.656189 -82.933961 70 38943ft 613kts
19-Jan-19 09:06 37.718411 -82.713340 70 38962ft 614kts
19-Jan-19 09:06 37.769739 -82.529343 70 38963ft 613kts
19-Jan-19 09:07 37.825611 -82.330536 70 38957ft 614kts
19-Jan-19 09:09 37.888179 -82.095761 72 38911ft 619kts
19-Jan-19 09:09 37.930692 -81.924580 72 38941ft 617kts
19-Jan-19 09:10 37.981368 -81.720006 73 38974ft 617kts
19-Jan-19 09:11 38.030665 -81.513667 72 38989ft 617kts
19-Jan-19 09:12 38.077436 -81.310806 76 39019ft 617kts
19-Jan-19 09:13 38.104801 -81.172043 76 39013ft 617kts
19-Jan-19 09:14 38.142767 -80.973970 76 38737ft 614kts
19-Jan-19 09:15 38.179821 -80.768584 76 38256ft 607kts
19-Jan-19 09:16 38.216856 -80.562793 76 37785ft 602kts
19-Jan-19 09:17 38.254432 -80.355100 75 37357ft 610kts
19-Jan-19 09:18 38.292633 -80.147644 76 36810ft 605kts
19-Jan-19 09:19 38.331193 -79.940012 75 36296ft 600kts
19-Jan-19 09:20 38.369784 -79.734324 75 35815ft 596kts
19-Jan-19 09:21 38.408687 -79.530223 75 35355ft 591kts
19-Jan-19 09:22 38.447119 -79.328738 75 34915ft 587kts
19-Jan-19 09:23 38.485428 -79.128457 75 34406ft 599kts
19-Jan-19 09:24 38.522476 -78.923878 75 33735ft 590kts
19-Jan-19 09:25 38.558641 -78.723275 75 32964ft 582kts
19-Jan-19 09:26 38.595015 -78.524826 74 32205ft 574kts
19-Jan-19 09:27 38.630227 -78.336070 75 31498ft 566kts
19-Jan-19 09:28 38.667161 -78.142715 76 30659ft 558kts
19-Jan-19 09:29 38.699279 -77.954754 76 29874ft 549kts
19-Jan-19 09:30 38.731837 -77.768147 76 29100ft 541kts
19-Jan-19 09:31 38.763439 -77.591202 76 28377ft 534kts
19-Jan-19 09:32 38.790132 -77.423466 77 27718ft 535kts
19-Jan-19 09:33 38.811401 -77.289471 78 27156ft 528kts
19-Jan-19 09:34 38.832226 -77.161569 78 26586ft 523kts
19-Jan-19 09:35 38.854927 -77.024100 78 25978ft 517kts
19-Jan-19 09:36 38.879639 -76.872697 81 25305ft 508kts
19-Jan-19 09:37 38.895795 -76.706488 83 24603ft 508kts
19-Jan-19 09:38 38.913464 -76.527261 83 23841ft 500kts
19-Jan-19 09:39 38.932924 -76.334173 83 23018ft 493kts
19-Jan-19 09:40 38.954224 -76.133224 83 21987ft 502kts
19-Jan-19 09:41 38.976704 -75.931427 83 20850ft 491kts
19-Jan-19 09:42 39.000724 -75.725813 83 19685ft 480kts
19-Jan-19 09:43 39.021499 -75.554942 82 18709ft 471kts
19-Jan-19 09:44 39.042226 -75.389887 82 18312ft 467kts
19-Jan-19 09:45 39.063357 -75.225396 83 18303ft 467kts
19-Jan-19 09:46 39.084741 -75.060356 82 18304ft 467kts
19-Jan-19 09:47 39.105584 -74.896811 81 18299ft 466kts
19-Jan-19 09:48 39.170253 -74.757069 43 18296ft 466kts
19-Jan-19 09:49 39.260853 -74.638412 42 18305ft 465kts
19-Jan-19 09:50 39.351740 -74.519516 42 18305ft 465kts
19-Jan-19 09:51 39.442669 -74.400679 42 18306ft 465kts
19-Jan-19 09:52 39.534719 -74.283854 42 18299ft 465kts
19-Jan-19 09:53 39.626009 -74.168579 42 18306ft 464kts
19-Jan-19 09:54 39.718531 -74.051381 41 18311ft 464kts
19-Jan-19 09:55 39.811407 -73.941889 30 18197ft 418kts
19-Jan-19 09:56 39.907453 -73.874225 22 16956ft 373kts
19-Jan-19 09:57 39.997407 -73.821522 7 15674ft 339kts
19-Jan-19 09:58 40.087398 -73.822416 346 14078ft 319kts
19-Jan-19 09:59 40.173619 -73.843249 343 12124ft 319kts
19-Jan-19 10:00 40.257011 -73.865242 343 10143ft 290kts
19-Jan-19 10:01 40.325159 -73.881990 344 8202ft 242kts
19-Jan-19 10:02 40.383131 -73.898210 344 6338ft 214kts
19-Jan-19 10:03 40.438536 -73.901719 28 4298ft 194kts
19-Jan-19 10:04 40.484012 -73.868042 22 1872ft 182kts
19-Jan-19 10:05 40.525451 -73.846620 20 1501ft 163kts
19-Jan-19 10:06 40.562104 -73.829198 17 1490ft 164kts
19-Jan-19 10:07 40.591071 -73.810413 33 827ft 162kts
19-Jan-19 10:08 40.615285 -73.791097 30 265ft 158kts
19-Jan-19 10:09 40.635733 -73.774887 28 22ft 83kts
19-Jan-19 10:10 40.641185 -73.775029 322 21ft 22kts
19-Jan-19 10:11 40.644234 -73.774710 29 21ft 16kts
19-Jan-19 10:12 40.645375 -73.774337 0 21ft 0kts
19-Jan-19 10:13 40.645375 -73.774337 0 21ft 0kts

Navigation Log

Ident Type
Flight plan parsing failed, navigation log unavailable